Observations for LARAMIE GEN. BREES, WY (LAR)

KLAR 201553Z AUTO 35010G16KT 10SM CLR 15/06 A3026 RMK AO2 SLP160 T01500056  
KLAR 201453Z AUTO 35009KT 10SM CLR 13/05 A3027 RMK AO2 SLP165 T01280050 53010   
KLAR 201353Z AUTO 00000KT 10SM FEW065 11/06 A3025 RMK AO2 SLP159 T01110056  
KLAR 201253Z AUTO 14004KT 10SM CLR 07/06 A3024 RMK AO2 SLP164 T00720056 
KLAR 201153Z AUTO 00000KT 10SM CLR 06/04 A3023 RMK AO2 SLP163 70002 T00560044 10094 20044 55000 
KLAR 201053Z AUTO 26003KT 10SM CLR 05/03 A3022 RMK AO2 SLP158 T00500033 
KLAR 201016Z AUTO 00000KT 10SM FEW002 06/04 A3023 RMK AO2 T00560044
KLAR 200953Z AUTO 00000KT 10SM CLR 07/05 A3023 RMK AO2 SLP160 T00670050 
KLAR 200853Z AUTO 27003KT 10SM FEW055 06/04 A3023 RMK AO2 SLP166 T00560044 58001
KLAR 200753Z AUTO 34003KT 10SM FEW090 08/06 A3024 RMK AO2 SLP148 T00830056  
KLAR 200653Z AUTO 00000KT 10SM OVC085 09/06 A3024 RMK AO2 SLP151 T00940056 402110078
KLAR 200553Z AUTO 35006KT 10SM CLR 09/06 A3024 RMK AO2 SLP153 T00940056 10172 20094 53010   
KLAR 200453Z AUTO 32010KT 10SM CLR 11/05 A3021 RMK AO2 SLP137 T01060050 
KLAR 200353Z AUTO 32007KT 10SM CLR 12/06 A3020 RMK AO2 SLP134 T01170056 
KLAR 200253Z AUTO 34010KT 10SM CLR 13/04 A3020 RMK AO2 SLP131 T01330044 53014   
KLAR 200153Z AUTO 34015G22KT 10SM CLR 16/04 A3017 RMK AO2 PK WND 33027/0112 SLP122 T01560039
KLAR 200053Z AUTO 34016G23KT 10SM CLR 16/05 A3015 RMK AO2 PK WND 32028/0020 SLP115 T01610050
KLAR 192353Z AUTO 32017G23KT 10SM CLR 17/04 A3015 RMK AO2 PK WND 34026/2303 SLP118 60002 T01670044 10211 20139 58001
KLAR 192253Z AUTO 35017G26KT 10SM CLR 18/04 A3015 RMK AO2 PK WND 32034/2209 SLP115 T01780044
KLAR 192153Z AUTO 33020G26KT 10SM SCT080 SCT095 16/06 A3016 RMK AO2 PK WND 01031/2116 LTG DSNT E SLP126 T01610056   
KLAR 192053Z AUTO 02018G27KT 10SM CLR 15/07 A3015 RMK AO2 PK WND 36033/2004 WSHFT 1955 LTG DSNT E SLP127 60002 T01500072 53018  
KLAR 192015Z AUTO 36019G27KT 10SM SCT110 15/07 A3013 RMK AO2 PK WND 36033/2004 WSHFT 1955 LTG DSNT N AND NE T01500067
KLAR 191953Z AUTO 15015G27KT 10SM SCT110 21/06 A3012 RMK AO2 PK WND 15035/1928 LTG DSNT N AND NE PRESRR SLP098 T02060061
KLAR 191853Z AUTO 15022G27KT 10SM CLR 18/12 A3008 RMK AO2 PK WND 15028/1843 LTG DSNT ALQDS RAB07E31 SLP089 P0002 T01830122  
KLAR 191833Z AUTO 15024G28KT 10SM VCTS FEW040 SCT080 SCT100 16/12 A3010 RMK AO2PK WND 16028/1832 LTG DSNT ALQDS RAB07E31 P0002 T01610117
KLAR 191848Z AUTO 14024KT 10SM CLR 18/12 A3008 RMK AO2 PK WND 15028/1843 LTG DSNT ALQDS RAB07E31 P0002
KLAR 191753Z AUTO 15020G26KT 10SM FEW085 SCT110 17/11 A3010 RMK AO2 PK WND 14029/1736 LTG DSNT NW SLP098 T01720111 10183 20111 58011
KLAR 191653Z AUTO 15022KT 10SM FEW110 18/11 A3012 RMK AO2 PK WND 15027/1617 SLP101 T01830106
KLAR 191553Z AUTO 14020G28KT 10SM CLR 17/11 A3013 RMK AO2 PK WND 13028/1546 SLP104 T01720106